createdAt,value
2022-10-25T00:01:54.337Z,95943.00
2022-10-25T00:07:22.221Z,95940.00
2022-10-25T00:12:50.197Z,95948.00
2022-10-25T00:18:17.946Z,95936.00
2022-10-25T00:23:46.801Z,95925.00
2022-10-25T00:29:14.859Z,95929.00
2022-10-25T00:34:42.595Z,95928.00
2022-10-25T00:40:11.203Z,95932.00
2022-10-25T00:45:39.133Z,95930.00
2022-10-25T00:51:07.116Z,95933.00
2022-10-25T00:56:40.314Z,95925.00
2022-10-25T01:02:08.580Z,95917.00
2022-10-25T01:07:36.831Z,95921.00
2022-10-25T01:13:05.020Z,95914.00
2022-10-25T01:19:01.710Z,95916.00
2022-10-25T01:25:04.164Z,95905.00
2022-10-25T01:31:33.142Z,95895.00
2022-10-25T01:37:13.562Z,95902.00
2022-10-25T01:43:12.184Z,95892.00
2022-10-25T01:48:49.073Z,95887.00
2022-10-25T01:54:26.467Z,95893.00
2022-10-25T02:00:20.120Z,95902.00
2022-10-25T02:06:01.411Z,95903.00
2022-10-25T02:11:32.129Z,95915.00
2022-10-25T02:17:25.648Z,95912.00
2022-10-25T02:22:55.662Z,95905.00
2022-10-25T02:28:27.416Z,95907.00
2022-10-25T02:33:55.199Z,95914.00
2022-10-25T02:39:29.042Z,95913.00
2022-10-25T02:44:59.130Z,95914.00
2022-10-25T02:50:26.840Z,95924.00
2022-10-25T02:56:17.467Z,95929.00
2022-10-25T03:01:45.561Z,95926.00
2022-10-25T03:07:13.519Z,95910.00
2022-10-25T03:12:41.275Z,95920.00
2022-10-25T03:18:09.710Z,95919.00
2022-10-25T03:23:37.607Z,95924.00
2022-10-25T03:29:06.530Z,95927.00
2022-10-25T03:34:34.548Z,95927.00
2022-10-25T03:40:02.421Z,95934.00
2022-10-25T03:45:30.209Z,95945.00
2022-10-25T03:50:58.043Z,95942.00
2022-10-25T03:56:25.918Z,95950.00
2022-10-25T04:01:54.153Z,95943.00
2022-10-25T04:07:22.250Z,95946.00
2022-10-25T04:18:22.859Z,95956.00
2022-10-25T04:23:51.271Z,95952.00
2022-10-25T04:29:21.181Z,95949.00
2022-10-25T04:34:48.887Z,95938.00
2022-10-25T04:40:22.514Z,95932.00
2022-10-25T04:45:53.454Z,95939.00
2022-10-25T04:51:21.205Z,95939.00
2022-10-25T04:56:48.886Z,95948.00
2022-10-25T05:02:16.684Z,95959.00
2022-10-25T05:07:44.646Z,95960.00
2022-10-25T05:13:12.576Z,95959.00
2022-10-25T05:18:42.808Z,95965.00
2022-10-25T05:24:10.547Z,95957.00
2022-10-25T05:29:38.261Z,95957.00
2022-10-25T05:35:06.349Z,95960.00
2022-10-25T05:40:34.192Z,95958.00
2022-10-25T05:46:07.416Z,95965.00
2022-10-25T05:51:37.102Z,95975.00
2022-10-25T05:57:05.092Z,95986.00
2022-10-25T06:02:33.027Z,95987.00
2022-10-25T06:08:00.906Z,95998.00
2022-10-25T06:13:28.686Z,95993.00
2022-10-25T06:18:56.783Z,96000.00
2022-10-25T06:24:24.565Z,96011.00
2022-10-25T06:29:52.258Z,96021.00
2022-10-25T06:35:20.063Z,96023.00
2022-10-25T06:40:47.810Z,96031.00
2022-10-25T06:46:30.132Z,96028.00
2022-10-25T06:51:57.881Z,96028.00
2022-10-25T06:57:25.564Z,96040.00
2022-10-25T07:02:59.118Z,96035.00
2022-10-25T07:08:28.152Z,96037.00
2022-10-25T07:13:58.676Z,96048.00
2022-10-25T07:19:26.512Z,96054.00
2022-10-25T07:24:54.518Z,96061.00
2022-10-25T07:30:22.387Z,96078.00
2022-10-25T07:36:06.160Z,96075.00
2022-10-25T07:41:38.082Z,96080.00
2022-10-25T07:47:05.880Z,96075.00
2022-10-25T07:52:33.682Z,96075.00
2022-10-25T07:58:03.498Z,96079.00
2022-10-25T08:03:32.138Z,96077.00
2022-10-25T08:09:05.528Z,96070.00
2022-10-25T08:14:44.087Z,96082.00
2022-10-25T08:20:14.284Z,96077.00
2022-10-25T08:25:42.401Z,96078.00
2022-10-25T08:31:10.479Z,96071.00
2022-10-25T08:36:38.364Z,96078.00
2022-10-25T08:42:06.618Z,96071.00
2022-10-25T08:47:40.372Z,96074.00
2022-10-25T08:53:21.312Z,96083.00
2022-10-25T08:58:58.308Z,96081.00
2022-10-25T09:04:29.616Z,96079.00
2022-10-25T09:10:18.972Z,96082.00
2022-10-25T09:16:09.490Z,96079.00
2022-10-25T09:21:50.628Z,96080.00
2022-10-25T09:27:37.711Z,96080.00
2022-10-25T09:33:20.066Z,96074.00
2022-10-25T09:38:56.944Z,96074.00
2022-10-25T09:44:40.640Z,96069.00
2022-10-25T09:50:29.816Z,96079.00
2022-10-25T09:56:05.435Z,96082.00
2022-10-25T10:01:35.253Z,96084.00
2022-10-25T10:07:22.993Z,96090.00
2022-10-25T10:13:06.982Z,96082.00
2022-10-25T10:18:35.455Z,96085.00
2022-10-25T10:24:07.177Z,96080.00
2022-10-25T10:30:00.952Z,96077.00
2022-10-25T10:35:36.916Z,96071.00
2022-10-25T10:41:25.425Z,96069.00
2022-10-25T10:46:55.636Z,96058.00
2022-10-25T10:52:41.221Z,96055.00
2022-10-25T10:58:22.851Z,96056.00
2022-10-25T11:04:00.378Z,96055.00
2022-10-25T11:09:29.781Z,96052.00
2022-10-25T11:14:57.506Z,96048.00
2022-10-25T11:20:52.526Z,96053.00
2022-10-25T11:27:25.253Z,96045.00
2022-10-25T11:32:59.015Z,96040.00
2022-10-25T11:38:55.771Z,96038.00
2022-10-25T11:44:35.318Z,96034.00
2022-10-25T11:50:45.926Z,96025.00
2022-10-25T11:56:40.943Z,96016.00
2022-10-25T12:02:08.728Z,96017.00
2022-10-25T12:07:49.332Z,96014.00
2022-10-25T12:13:29.022Z,96011.00
2022-10-25T12:19:19.547Z,96013.00
2022-10-25T12:24:56.890Z,96019.00
2022-10-25T12:36:04.856Z,96010.00
2022-10-25T12:41:37.446Z,96009.00
2022-10-25T12:47:56.078Z,95997.00
2022-10-25T12:53:35.563Z,96002.00
2022-10-25T12:59:36.010Z,95998.00
2022-10-25T13:05:30.441Z,96001.00
2022-10-25T13:11:05.576Z,96001.00
2022-10-25T13:16:34.664Z,95998.00
2022-10-25T13:22:35.701Z,95994.00
2022-10-25T13:28:14.416Z,95987.00
2022-10-25T13:33:42.347Z,95985.00
2022-10-25T13:39:22.577Z,95983.00
2022-10-25T13:45:02.157Z,95981.00
2022-10-25T13:50:33.832Z,95983.00
2022-10-25T13:56:08.235Z,95982.00
2022-10-25T14:01:36.029Z,95966.00
2022-10-25T14:07:41.173Z,95965.00
2022-10-25T14:13:23.902Z,95952.00
2022-10-25T14:18:54.091Z,95955.00
2022-10-25T14:24:22.209Z,95966.00
2022-10-25T14:29:49.934Z,95972.00
2022-10-25T14:35:18.309Z,95960.00
2022-10-25T14:40:59.165Z,95955.00
2022-10-25T14:46:34.141Z,95964.00
2022-10-25T14:52:07.986Z,95976.00
2022-10-25T14:57:37.082Z,95958.00
2022-10-25T15:03:15.923Z,95961.00
2022-10-25T15:08:51.480Z,95971.00
2022-10-25T15:14:22.089Z,95964.00
2022-10-25T15:20:19.482Z,95966.00
2022-10-25T15:25:47.409Z,95955.00
2022-10-25T15:31:23.657Z,95959.00
2022-10-25T15:36:52.466Z,95961.00
2022-10-25T15:42:22.874Z,95965.00
2022-10-25T15:47:51.274Z,95959.00
2022-10-25T15:53:19.922Z,95957.00
2022-10-25T15:58:48.580Z,95960.00
2022-10-25T16:04:18.620Z,95965.00
2022-10-25T16:09:46.382Z,95953.00
2022-10-25T16:15:16.803Z,95967.00
2022-10-25T16:20:44.600Z,95971.00
2022-10-25T16:26:41.748Z,95965.00
2022-10-25T16:32:09.634Z,95974.00
2022-10-25T16:37:37.526Z,95963.00
2022-10-25T16:43:05.591Z,95975.00
2022-10-25T16:48:36.377Z,95976.00
2022-10-25T16:54:04.436Z,95975.00
2022-10-25T16:59:32.285Z,95992.00
2022-10-25T17:05:00.616Z,95988.00
2022-10-25T17:10:28.962Z,95985.00
2022-10-25T17:15:57.042Z,95994.00
2022-10-25T17:21:28.411Z,95995.00
2022-10-25T17:26:56.314Z,95992.00
2022-10-25T17:32:24.364Z,95986.00
2022-10-25T17:37:55.946Z,95984.00
2022-10-25T17:43:23.741Z,95988.00
2022-10-25T17:48:55.921Z,95983.00
2022-10-25T17:54:23.842Z,95989.00
2022-10-25T17:59:51.685Z,95979.00
2022-10-25T18:05:21.759Z,95975.00
2022-10-25T18:10:49.805Z,95976.00
2022-10-25T18:16:18.049Z,95980.00
2022-10-25T18:21:47.155Z,95972.00
2022-10-25T18:27:15.911Z,95966.00
2022-10-25T18:32:43.971Z,95974.00
2022-10-25T18:38:17.096Z,95959.00
2022-10-25T18:43:46.888Z,95958.00
2022-10-25T18:49:14.979Z,95955.00
2022-10-25T18:54:43.590Z,95954.00
2022-10-25T19:00:12.930Z,95949.00
2022-10-25T19:05:44.997Z,95942.00
2022-10-25T19:11:18.672Z,95934.00
2022-10-25T19:16:46.636Z,95938.00
2022-10-25T19:22:16.686Z,95933.00
2022-10-25T19:27:46.061Z,95925.00
2022-10-25T19:33:20.741Z,95923.00
2022-10-25T19:38:50.005Z,95911.00
2022-10-25T19:44:19.254Z,95905.00
2022-10-25T19:49:49.507Z,95909.00
2022-10-25T19:55:17.739Z,95901.00
2022-10-25T20:00:45.801Z,95894.00
2022-10-25T20:06:20.083Z,95895.00
2022-10-25T20:12:03.170Z,95890.00
2022-10-25T20:23:41.318Z,95893.00
2022-10-25T20:29:20.251Z,95893.00
2022-10-25T20:34:49.544Z,95891.00
2022-10-25T20:40:21.000Z,95884.00
2022-10-25T20:45:58.139Z,95895.00
2022-10-25T20:51:26.741Z,95896.00
2022-10-25T20:56:57.728Z,95902.00
2022-10-25T21:02:28.861Z,95889.00
2022-10-25T21:07:56.751Z,95884.00
2022-10-25T21:13:33.571Z,95885.00
2022-10-25T21:19:41.038Z,95891.00
2022-10-25T21:25:11.822Z,95877.00
2022-10-25T21:30:43.875Z,95870.00
2022-10-25T21:36:17.617Z,95878.00
2022-10-25T21:41:45.671Z,95871.00
2022-10-25T21:47:14.360Z,95865.00
2022-10-25T21:52:45.300Z,95861.00
2022-10-25T21:58:13.236Z,95849.00
2022-10-25T22:03:48.409Z,95836.00
2022-10-25T22:09:22.272Z,95843.00
2022-10-25T22:14:52.258Z,95832.00
2022-10-25T22:20:20.076Z,95827.00
2022-10-25T22:25:47.965Z,95847.00
2022-10-25T22:31:25.655Z,95843.00
2022-10-25T22:36:55.768Z,95826.00
2022-10-25T22:42:25.417Z,95821.00
2022-10-25T22:47:53.181Z,95830.00
2022-10-25T22:53:22.027Z,95815.00
2022-10-25T22:58:55.633Z,95817.00
2022-10-25T23:04:23.531Z,95811.00
2022-10-25T23:09:51.344Z,95802.00
2022-10-25T23:15:19.128Z,95804.00
2022-10-25T23:20:55.000Z,95812.00
2022-10-25T23:26:32.216Z,95824.00
2022-10-25T23:32:00.152Z,95840.00
2022-10-25T23:37:28.074Z,95822.00
2022-10-25T23:42:55.878Z,95813.00
2022-10-25T23:48:23.709Z,95834.00
2022-10-25T23:53:52.104Z,95827.00
2022-10-25T23:59:19.933Z,95814.00
